This is the latest recevied weather packets stored in our database for station/object HS5FXK-3. If no packets are shown the sender has not sent any weather packets the latest 10 day(s).
| Time | Temp. | Humidity | Pressure | Rain* | Wind** | Luminosity | Snow |
|---|---|---|---|---|---|---|---|
| 1778075311 | 29.44° C | 93% | 976 hPa | - | - | 0 W/m² | - |
| 1778074399 | 29.44° C | 92% | 976 hPa | - | - | 0 W/m² | - |
| 1778073487 | 29.44° C | 94% | 976 hPa | - | - | 0 W/m² | - |
| 1778072575 | 30° C | 95% | 975 hPa | - | - | 0 W/m² | - |
| 1778071664 | 29.44° C | 97% | 975 hPa | - | - | 0 W/m² | - |
| 1778070750 | 30° C | 91% | 975 hPa | - | - | 0 W/m² | - |
| 1778070366 | 30° C | 87% | 975 hPa | - | - | 0 W/m² | - |
| 1778069651 | 29.44° C | 84% | 975 hPa | - | - | 0 W/m² | - |
| 1778068729 | 31.11° C | 71% | 976 hPa | - | - | 0 W/m² | - |
| 1778068531 | 32.22° C | 61% | 975 hPa | - | - | 0 W/m² | - |
| 1778067619 | 35° C | 56% | 974 hPa | - | - | 0 W/m² | - |
| 1778067423 | 35° C | 56% | 974 hPa | - | - | 0 W/m² | - |
| 1778066511 | 35.56° C | 50% | 974 hPa | - | - | 0 W/m² | - |
| 1778065598 | 36.11° C | 47% | 974 hPa | - | - | 0 W/m² | - |
| 1778065395 | 36.11° C | 47% | 974 hPa | - | - | 0 W/m² | - |
| 1778064482 | 36.11° C | 43% | 974 hPa | - | - | 0 W/m² | - |
| 1778063570 | 36.67° C | 44% | 974 hPa | - | - | 0 W/m² | - |
| 1778062657 | 37.22° C | 40% | 973 hPa | - | - | 0 W/m² | - |
| 1778061743 | 37.78° C | 39% | 973 hPa | - | - | 0 W/m² | - |
| 1778060830 | 38.33° C | 38% | 974 hPa | - | - | 0 W/m² | - |
| 1778059917 | 38.89° C | 35% | 974 hPa | - | - | 0 W/m² | - |
| 1778059153 | 39.44° C | 34% | 974 hPa | - | - | 0 W/m² | - |
| 1778058478 | 39.44° C | 37% | 974 hPa | - | - | 0 W/m² | - |
| 1778057710 | 40° C | 33% | 974 hPa | - | - | 0 W/m² | - |
| 1778055950 | 41.11° C | 32% | 974 hPa | - | - | 0 W/m² | - |
* Rain since midnight (hover to see other rain measurements)
** Current wind speed in m/s (hover to see current wind gust speed)